sensor_id;sensor_type;location;lat;lon;timestamp;pressure;altitude;pressure_sealevel;temperature;humidity
43298;BME280;28892;55.640;37.532;2023-12-07T00:01:14;100518.69;;;-5.62;56.01
43298;BME280;28892;55.640;37.532;2023-12-07T00:03:41;100504.91;;;-5.63;56.04
43298;BME280;28892;55.640;37.532;2023-12-07T00:06:07;100516.19;;;-5.65;56.11
43298;BME280;28892;55.640;37.532;2023-12-07T00:08:33;100515.22;;;-5.61;56.10
43298;BME280;28892;55.640;37.532;2023-12-07T00:10:59;100516.06;;;-5.61;55.69
43298;BME280;28892;55.640;37.532;2023-12-07T00:13:25;100511.53;;;-5.54;55.79
43298;BME280;28892;55.640;37.532;2023-12-07T00:15:52;100506.56;;;-5.60;55.67
43298;BME280;28892;55.640;37.532;2023-12-07T00:18:17;100512.72;;;-5.64;55.86
43298;BME280;28892;55.640;37.532;2023-12-07T00:20:43;100509.44;;;-5.69;56.04
43298;BME280;28892;55.640;37.532;2023-12-07T00:23:10;100513.88;;;-5.75;55.98
43298;BME280;28892;55.640;37.532;2023-12-07T00:25:36;100515.63;;;-5.75;56.03
43298;BME280;28892;55.640;37.532;2023-12-07T00:28:02;100518.44;;;-5.83;55.95
43298;BME280;28892;55.640;37.532;2023-12-07T00:30:29;100521.94;;;-5.84;56.00
43298;BME280;28892;55.640;37.532;2023-12-07T00:32:54;100527.16;;;-5.87;56.06
43298;BME280;28892;55.640;37.532;2023-12-07T00:35:21;100513.34;;;-5.86;56.19
43298;BME280;28892;55.640;37.532;2023-12-07T00:37:48;100507.34;;;-5.86;56.26
43298;BME280;28892;55.640;37.532;2023-12-07T00:40:14;100512.56;;;-5.88;56.28
43298;BME280;28892;55.640;37.532;2023-12-07T00:42:40;100523.75;;;-5.87;56.12
43298;BME280;28892;55.640;37.532;2023-12-07T00:45:06;100528.06;;;-5.88;56.22
43298;BME280;28892;55.640;37.532;2023-12-07T00:47:31;100522.09;;;-5.90;56.31
43298;BME280;28892;55.640;37.532;2023-12-07T00:49:57;100517.94;;;-5.96;56.62
43298;BME280;28892;55.640;37.532;2023-12-07T00:52:23;100527.38;;;-5.95;56.54
43298;BME280;28892;55.640;37.532;2023-12-07T00:54:49;100530.06;;;-5.98;56.59
43298;BME280;28892;55.640;37.532;2023-12-07T00:57:15;100527.41;;;-5.96;56.72
43298;BME280;28892;55.640;37.532;2023-12-07T00:59:41;100538.66;;;-5.97;56.47
43298;BME280;28892;55.640;37.532;2023-12-07T01:02:06;100533.47;;;-5.97;56.68
43298;BME280;28892;55.640;37.532;2023-12-07T01:04:32;100537.63;;;-5.92;56.69
43298;BME280;28892;55.640;37.532;2023-12-07T01:06:59;100534.22;;;-5.92;56.40
43298;BME280;28892;55.640;37.532;2023-12-07T01:09:25;100534.22;;;-5.92;56.35
43298;BME280;28892;55.640;37.532;2023-12-07T01:11:51;100538.63;;;-5.96;56.45
43298;BME280;28892;55.640;37.532;2023-12-07T01:14:18;100546.25;;;-5.91;56.06
43298;BME280;28892;55.640;37.532;2023-12-07T01:16:44;100541.28;;;-5.99;56.15
43298;BME280;28892;55.640;37.532;2023-12-07T01:19:10;100532.81;;;-6.03;56.34
43298;BME280;28892;55.640;37.532;2023-12-07T01:21:40;100538.25;;;-6.13;56.54
43298;BME280;28892;55.640;37.532;2023-12-07T01:24:07;100547.91;;;-6.19;56.49
43298;BME280;28892;55.640;37.532;2023-12-07T01:26:32;100543.53;;;-6.17;56.49
43298;BME280;28892;55.640;37.532;2023-12-07T01:28:58;100547.03;;;-6.19;56.26
43298;BME280;28892;55.640;37.532;2023-12-07T01:31:24;100545.53;;;-6.26;56.42
43298;BME280;28892;55.640;37.532;2023-12-07T01:33:49;100548.16;;;-6.29;56.36
43298;BME280;28892;55.640;37.532;2023-12-07T01:36:15;100546.47;;;-6.31;56.42
43298;BME280;28892;55.640;37.532;2023-12-07T01:38:40;100550.84;;;-6.33;56.58
43298;BME280;28892;55.640;37.532;2023-12-07T01:41:06;100555.22;;;-6.35;56.44
43298;BME280;28892;55.640;37.532;2023-12-07T01:43:32;100555.41;;;-6.42;56.47
43298;BME280;28892;55.640;37.532;2023-12-07T01:45:58;100564.19;;;-6.50;56.70
43298;BME280;28892;55.640;37.532;2023-12-07T01:48:25;100566.66;;;-6.45;56.81
43298;BME280;28892;55.640;37.532;2023-12-07T01:50:52;100568.50;;;-6.50;56.80
43298;BME280;28892;55.640;37.532;2023-12-07T01:53:18;100569.44;;;-6.53;56.85
43298;BME280;28892;55.640;37.532;2023-12-07T01:55:46;100565.91;;;-6.50;57.08
43298;BME280;28892;55.640;37.532;2023-12-07T01:58:12;100581.28;;;-6.46;57.10
43298;BME280;28892;55.640;37.532;2023-12-07T02:00:39;100573.59;;;-6.47;56.93
43298;BME280;28892;55.640;37.532;2023-12-07T02:03:05;100582.06;;;-6.42;57.01
43298;BME280;28892;55.640;37.532;2023-12-07T02:05:31;100574.19;;;-6.36;56.85
43298;BME280;28892;55.640;37.532;2023-12-07T02:07:58;100570.63;;;-6.32;56.75
43298;BME280;28892;55.640;37.532;2023-12-07T02:10:24;100575.66;;;-6.27;56.61
43298;BME280;28892;55.640;37.532;2023-12-07T02:12:50;100568.69;;;-6.23;56.40
43298;BME280;28892;55.640;37.532;2023-12-07T02:15:16;100570.25;;;-6.18;56.07
43298;BME280;28892;55.640;37.532;2023-12-07T02:20:25;100567.91;;;-6.27;56.12
43298;BME280;28892;55.640;37.532;2023-12-07T02:22:54;100578.47;;;-6.36;56.50
43298;BME280;28892;55.640;37.532;2023-12-07T02:25:23;100577.56;;;-6.34;56.60
43298;BME280;28892;55.640;37.532;2023-12-07T02:27:49;100575.78;;;-6.32;56.62
43298;BME280;28892;55.640;37.532;2023-12-07T02:30:15;100588.91;;;-6.39;56.71
43298;BME280;28892;55.640;37.532;2023-12-07T02:32:41;100587.75;;;-6.27;56.77
43298;BME280;28892;55.640;37.532;2023-12-07T02:35:07;100597.97;;;-6.24;56.57
43298;BME280;28892;55.640;37.532;2023-12-07T02:37:46;100595.50;;;-6.27;56.62
43298;BME280;28892;55.640;37.532;2023-12-07T02:40:14;100602.47;;;-6.31;56.30
43298;BME280;28892;55.640;37.532;2023-12-07T02:42:40;100593.09;;;-6.35;56.34
43298;BME280;28892;55.640;37.532;2023-12-07T02:45:07;100592.25;;;-6.36;56.34
43298;BME280;28892;55.640;37.532;2023-12-07T02:47:33;100587.19;;;-6.40;56.42
43298;BME280;28892;55.640;37.532;2023-12-07T02:49:59;100596.66;;;-6.39;56.58
43298;BME280;28892;55.640;37.532;2023-12-07T02:52:25;100602.81;;;-6.45;56.47
43298;BME280;28892;55.640;37.532;2023-12-07T02:54:51;100594.84;;;-6.36;56.48
43298;BME280;28892;55.640;37.532;2023-12-07T02:57:16;100600.00;;;-6.36;56.35
43298;BME280;28892;55.640;37.532;2023-12-07T02:59:42;100601.81;;;-6.39;56.49
43298;BME280;28892;55.640;37.532;2023-12-07T03:02:08;100606.31;;;-6.48;56.48
43298;BME280;28892;55.640;37.532;2023-12-07T03:04:34;100597.56;;;-6.42;56.75
43298;BME280;28892;55.640;37.532;2023-12-07T03:07:00;100600.78;;;-6.32;56.34
43298;BME280;28892;55.640;37.532;2023-12-07T03:09:26;100602.41;;;-6.29;56.22
43298;BME280;28892;55.640;37.532;2023-12-07T03:11:51;100610.34;;;-6.37;56.23
43298;BME280;28892;55.640;37.532;2023-12-07T03:14:17;100607.06;;;-6.42;56.34
43298;BME280;28892;55.640;37.532;2023-12-07T03:16:45;100614.84;;;-6.44;56.59
43298;BME280;28892;55.640;37.532;2023-12-07T03:19:11;100626.75;;;-6.40;56.53
43298;BME280;28892;55.640;37.532;2023-12-07T03:21:38;100619.78;;;-6.35;56.41
43298;BME280;28892;55.640;37.532;2023-12-07T03:24:07;100626.47;;;-6.27;56.03
43298;BME280;28892;55.640;37.532;2023-12-07T03:26:36;100629.22;;;-6.34;56.29
43298;BME280;28892;55.640;37.532;2023-12-07T03:29:02;100634.56;;;-6.41;56.17
43298;BME280;28892;55.640;37.532;2023-12-07T03:31:28;100635.06;;;-6.27;56.44
43298;BME280;28892;55.640;37.532;2023-12-07T03:33:54;100640.28;;;-6.28;56.00
43298;BME280;28892;55.640;37.532;2023-12-07T03:36:20;100640.31;;;-6.30;56.28
43298;BME280;28892;55.640;37.532;2023-12-07T03:38:46;100647.03;;;-6.23;56.07
43298;BME280;28892;55.640;37.532;2023-12-07T03:41:12;100647.66;;;-6.14;56.02
43298;BME280;28892;55.640;37.532;2023-12-07T03:43:38;100644.16;;;-6.12;56.07
43298;BME280;28892;55.640;37.532;2023-12-07T03:46:04;100647.63;;;-6.13;56.37
43298;BME280;28892;55.640;37.532;2023-12-07T03:48:31;100645.69;;;-6.05;55.64
43298;BME280;28892;55.640;37.532;2023-12-07T03:50:57;100645.03;;;-6.13;55.87
43298;BME280;28892;55.640;37.532;2023-12-07T03:53:23;100645.81;;;-6.09;55.55
43298;BME280;28892;55.640;37.532;2023-12-07T03:55:49;100647.41;;;-6.05;55.05
43298;BME280;28892;55.640;37.532;2023-12-07T03:58:15;100647.53;;;-6.10;54.91
43298;BME280;28892;55.640;37.532;2023-12-07T04:00:41;100648.66;;;-6.20;54.68
43298;BME280;28892;55.640;37.532;2023-12-07T04:03:07;100652.44;;;-6.34;54.71
43298;BME280;28892;55.640;37.532;2023-12-07T04:05:33;100652.59;;;-6.40;55.11
43298;BME280;28892;55.640;37.532;2023-12-07T04:07:59;100662.81;;;-6.35;54.95
43298;BME280;28892;55.640;37.532;2023-12-07T04:10:28;100662.28;;;-6.48;54.97
43298;BME280;28892;55.640;37.532;2023-12-07T04:12:54;100664.78;;;-6.45;55.45
43298;BME280;28892;55.640;37.532;2023-12-07T04:15:20;100655.91;;;-6.33;55.10
43298;BME280;28892;55.640;37.532;2023-12-07T04:17:46;100667.09;;;-6.34;54.81
43298;BME280;28892;55.640;37.532;2023-12-07T04:20:12;100665.44;;;-6.37;54.78
43298;BME280;28892;55.640;37.532;2023-12-07T04:22:41;100665.81;;;-6.52;55.37
43298;BME280;28892;55.640;37.532;2023-12-07T04:25:07;100673.31;;;-6.41;55.70
43298;BME280;28892;55.640;37.532;2023-12-07T04:27:33;100665.38;;;-6.35;55.66
43298;BME280;28892;55.640;37.532;2023-12-07T04:29:59;100655.81;;;-6.30;55.62
43298;BME280;28892;55.640;37.532;2023-12-07T04:32:25;100659.06;;;-6.22;54.74
43298;BME280;28892;55.640;37.532;2023-12-07T04:34:51;100663.63;;;-6.33;54.41
43298;BME280;28892;55.640;37.532;2023-12-07T04:37:19;100657.75;;;-6.40;54.76
43298;BME280;28892;55.640;37.532;2023-12-07T04:39:45;100672.31;;;-6.36;54.83
43298;BME280;28892;55.640;37.532;2023-12-07T04:42:11;100665.50;;;-6.40;55.02
43298;BME280;28892;55.640;37.532;2023-12-07T04:44:37;100670.56;;;-6.35;54.97
43298;BME280;28892;55.640;37.532;2023-12-07T04:47:03;100665.47;;;-6.38;54.44
43298;BME280;28892;55.640;37.532;2023-12-07T04:49:29;100671.66;;;-6.46;54.45
43298;BME280;28892;55.640;37.532;2023-12-07T04:51:56;100670.03;;;-6.48;54.59
43298;BME280;28892;55.640;37.532;2023-12-07T04:54:21;100672.72;;;-6.53;55.17
43298;BME280;28892;55.640;37.532;2023-12-07T04:56:47;100678.72;;;-6.52;54.75
43298;BME280;28892;55.640;37.532;2023-12-07T04:59:13;100673.56;;;-6.52;55.14
43298;BME280;28892;55.640;37.532;2023-12-07T05:01:39;100677.88;;;-6.53;55.08
43298;BME280;28892;55.640;37.532;2023-12-07T05:04:05;100683.75;;;-6.46;54.79
43298;BME280;28892;55.640;37.532;2023-12-07T05:06:31;100676.88;;;-6.47;54.85
43298;BME280;28892;55.640;37.532;2023-12-07T05:08:57;100682.09;;;-6.50;54.85
43298;BME280;28892;55.640;37.532;2023-12-07T05:11:23;100690.72;;;-6.51;54.68
43298;BME280;28892;55.640;37.532;2023-12-07T05:13:49;100677.94;;;-6.56;54.68
43298;BME280;28892;55.640;37.532;2023-12-07T05:16:15;100689.38;;;-6.66;55.10
43298;BME280;28892;55.640;37.532;2023-12-07T05:18:41;100701.44;;;-6.68;55.04
43298;BME280;28892;55.640;37.532;2023-12-07T05:21:07;100699.44;;;-6.55;55.13
43298;BME280;28892;55.640;37.532;2023-12-07T05:23:33;100696.06;;;-6.57;55.14
43298;BME280;28892;55.640;37.532;2023-12-07T05:25:59;100704.50;;;-6.51;54.87
43298;BME280;28892;55.640;37.532;2023-12-07T05:28:25;100709.78;;;-6.55;54.82
43298;BME280;28892;55.640;37.532;2023-12-07T05:30:52;100705.63;;;-6.63;54.74
43298;BME280;28892;55.640;37.532;2023-12-07T05:33:18;100713.44;;;-6.66;54.84
43298;BME280;28892;55.640;37.532;2023-12-07T05:35:47;100713.56;;;-6.72;54.98
43298;BME280;28892;55.640;37.532;2023-12-07T05:38:14;100719.69;;;-6.75;55.20
43298;BME280;28892;55.640;37.532;2023-12-07T05:40:40;100724.16;;;-6.83;55.21
43298;BME280;28892;55.640;37.532;2023-12-07T05:43:11;100723.91;;;-6.72;55.36
43298;BME280;28892;55.640;37.532;2023-12-07T05:45:37;100739.47;;;-6.75;55.38
43298;BME280;28892;55.640;37.532;2023-12-07T05:48:03;100735.19;;;-6.76;55.09
43298;BME280;28892;55.640;37.532;2023-12-07T05:50:29;100740.16;;;-6.67;55.20
43298;BME280;28892;55.640;37.532;2023-12-07T05:52:57;100742.94;;;-6.78;55.10
43298;BME280;28892;55.640;37.532;2023-12-07T05:55:23;100742.00;;;-6.74;54.95
43298;BME280;28892;55.640;37.532;2023-12-07T05:57:49;100745.69;;;-6.84;55.11
43298;BME280;28892;55.640;37.532;2023-12-07T06:00:16;100740.44;;;-6.81;55.47
43298;BME280;28892;55.640;37.532;2023-12-07T06:02:42;100743.81;;;-6.77;55.48
43298;BME280;28892;55.640;37.532;2023-12-07T06:05:08;100742.75;;;-6.68;55.66
43298;BME280;28892;55.640;37.532;2023-12-07T06:07:38;100735.59;;;-6.55;55.54
43298;BME280;28892;55.640;37.532;2023-12-07T06:10:05;100744.00;;;-6.47;54.83
43298;BME280;28892;55.640;37.532;2023-12-07T06:12:35;100746.66;;;-6.50;54.48
43298;BME280;28892;55.640;37.532;2023-12-07T06:15:01;100747.47;;;-6.48;54.48
43298;BME280;28892;55.640;37.532;2023-12-07T06:17:27;100745.00;;;-6.53;54.45
43298;BME280;28892;55.640;37.532;2023-12-07T06:19:54;100740.75;;;-6.55;54.45
43298;BME280;28892;55.640;37.532;2023-12-07T06:22:20;100741.75;;;-6.63;55.15
43298;BME280;28892;55.640;37.532;2023-12-07T06:24:49;100753.06;;;-6.67;54.94
43298;BME280;28892;55.640;37.532;2023-12-07T06:27:16;100747.59;;;-6.54;54.61
43298;BME280;28892;55.640;37.532;2023-12-07T06:29:42;100758.94;;;-6.62;54.18
43298;BME280;28892;55.640;37.532;2023-12-07T06:32:08;100750.44;;;-6.65;54.14
43298;BME280;28892;55.640;37.532;2023-12-07T06:34:39;100755.09;;;-6.81;54.59
43298;BME280;28892;55.640;37.532;2023-12-07T06:37:05;100754.13;;;-6.77;54.53
43298;BME280;28892;55.640;37.532;2023-12-07T06:39:31;100762.97;;;-6.89;54.76
43298;BME280;28892;55.640;37.532;2023-12-07T06:41:58;100759.31;;;-6.79;54.96
43298;BME280;28892;55.640;37.532;2023-12-07T06:44:25;100756.63;;;-6.74;54.29
43298;BME280;28892;55.640;37.532;2023-12-07T06:46:52;100755.72;;;-6.70;54.13
43298;BME280;28892;55.640;37.532;2023-12-07T06:49:18;100749.66;;;-6.69;53.84
43298;BME280;28892;55.640;37.532;2023-12-07T06:51:45;100754.13;;;-6.77;54.06
43298;BME280;28892;55.640;37.532;2023-12-07T06:54:14;100749.25;;;-6.90;54.18
43298;BME280;28892;55.640;37.532;2023-12-07T06:56:50;100753.44;;;-6.85;54.32
43298;BME280;28892;55.640;37.532;2023-12-07T06:59:15;100751.72;;;-6.85;54.48
43298;BME280;28892;55.640;37.532;2023-12-07T07:02:07;100751.66;;;-6.83;54.32
43298;BME280;28892;55.640;37.532;2023-12-07T07:04:40;100752.44;;;-6.78;53.95
43298;BME280;28892;55.640;37.532;2023-12-07T07:07:14;100756.72;;;-6.79;54.19
43298;BME280;28892;55.640;37.532;2023-12-07T07:09:41;100759.31;;;-6.79;54.19
43298;BME280;28892;55.640;37.532;2023-12-07T07:12:11;100763.59;;;-6.78;54.18
43298;BME280;28892;55.640;37.532;2023-12-07T07:14:37;100763.56;;;-6.76;53.96
43298;BME280;28892;55.640;37.532;2023-12-07T07:17:05;100757.44;;;-6.72;53.53
43298;BME280;28892;55.640;37.532;2023-12-07T07:19:37;100760.44;;;-6.91;53.86
43298;BME280;28892;55.640;37.532;2023-12-07T07:24:58;100761.00;;;-6.76;53.02
43298;BME280;28892;55.640;37.532;2023-12-07T07:27:24;100770.78;;;-6.92;52.94
43298;BME280;28892;55.640;37.532;2023-12-07T07:29:50;100759.69;;;-6.96;52.87
43298;BME280;28892;55.640;37.532;2023-12-07T07:32:17;100755.63;;;-7.08;53.27
43298;BME280;28892;55.640;37.532;2023-12-07T07:34:43;100765.28;;;-7.18;53.61
43298;BME280;28892;55.640;37.532;2023-12-07T07:37:10;100771.03;;;-7.05;53.63
43298;BME280;28892;55.640;37.532;2023-12-07T07:39:37;100770.94;;;-6.98;53.51
43298;BME280;28892;55.640;37.532;2023-12-07T07:42:04;100775.16;;;-6.96;53.17
43298;BME280;28892;55.640;37.532;2023-12-07T07:44:31;100773.44;;;-6.95;53.53
43298;BME280;28892;55.640;37.532;2023-12-07T07:52:44;100785.03;;;-6.74;52.93
43298;BME280;28892;55.640;37.532;2023-12-07T07:59:04;100772.00;;;-6.68;53.05
43298;BME280;28892;55.640;37.532;2023-12-07T08:01:30;100786.25;;;-6.51;52.72
43298;BME280;28892;55.640;37.532;2023-12-07T08:03:56;100779.13;;;-6.40;52.37
43298;BME280;28892;55.640;37.532;2023-12-07T08:06:23;100790.09;;;-6.28;52.09
43298;BME280;28892;55.640;37.532;2023-12-07T08:08:51;100782.66;;;-5.07;50.56
43298;BME280;28892;55.640;37.532;2023-12-07T08:11:18;100776.94;;;-4.29;49.52
43298;BME280;28892;55.640;37.532;2023-12-07T08:13:45;100778.03;;;-3.83;48.01
43298;BME280;28892;55.640;37.532;2023-12-07T08:16:19;100777.34;;;-3.12;47.67
43298;BME280;28892;55.640;37.532;2023-12-07T08:18:49;100778.94;;;-2.61;47.38
43298;BME280;28892;55.640;37.532;2023-12-07T08:21:18;100782.31;;;-2.35;46.81
43298;BME280;28892;55.640;37.532;2023-12-07T08:23:45;100786.53;;;-2.55;46.35
43298;BME280;28892;55.640;37.532;2023-12-07T08:26:10;100783.50;;;-2.67;46.72
43298;BME280;28892;55.640;37.532;2023-12-07T08:28:37;100776.03;;;-2.76;47.35
43298;BME280;28892;55.640;37.532;2023-12-07T08:31:03;100782.00;;;-2.28;44.67
43298;BME280;28892;55.640;37.532;2023-12-07T08:33:29;100767.13;;;-1.39;44.24
43298;BME280;28892;55.640;37.532;2023-12-07T08:35:55;100772.03;;;-1.13;43.22
43298;BME280;28892;55.640;37.532;2023-12-07T08:38:22;100757.69;;;-0.83;44.27
43298;BME280;28892;55.640;37.532;2023-12-07T08:40:48;100761.72;;;-0.20;42.53
43298;BME280;28892;55.640;37.532;2023-12-07T08:43:15;100760.81;;;0.17;39.98
43298;BME280;28892;55.640;37.532;2023-12-07T08:45:41;100766.31;;;0.28;41.16
43298;BME280;28892;55.640;37.532;2023-12-07T08:48:07;100762.47;;;0.53;39.83
43298;BME280;28892;55.640;37.532;2023-12-07T08:50:39;100766.28;;;0.63;39.82
43298;BME280;28892;55.640;37.532;2023-12-07T08:53:07;100768.78;;;0.49;39.55
43298;BME280;28892;55.640;37.532;2023-12-07T08:55:32;100772.47;;;-0.08;39.24
43298;BME280;28892;55.640;37.532;2023-12-07T08:57:59;100766.06;;;-0.20;40.81
43298;BME280;28892;55.640;37.532;2023-12-07T09:00:32;100770.72;;;-0.83;41.36
43298;BME280;28892;55.640;37.532;2023-12-07T09:02:58;100776.25;;;-1.10;42.00
43298;BME280;28892;55.640;37.532;2023-12-07T09:05:33;100780.44;;;-1.06;42.02
43298;BME280;28892;55.640;37.532;2023-12-07T09:08:28;100777.72;;;-1.04;41.15
43298;BME280;28892;55.640;37.532;2023-12-07T09:10:57;100773.44;;;-1.45;41.44
43298;BME280;28892;55.640;37.532;2023-12-07T09:14:02;100770.59;;;-1.80;42.61
43298;BME280;28892;55.640;37.532;2023-12-07T09:16:49;100774.59;;;-1.94;41.71
43298;BME280;28892;55.640;37.532;2023-12-07T09:19:15;100766.22;;;-1.80;42.40
43298;BME280;28892;55.640;37.532;2023-12-07T09:21:41;100760.81;;;-1.34;42.67
43298;BME280;28892;55.640;37.532;2023-12-07T09:24:07;100756.63;;;-0.98;40.17
43298;BME280;28892;55.640;37.532;2023-12-07T09:26:36;100761.53;;;-0.53;42.64
43298;BME280;28892;55.640;37.532;2023-12-07T09:29:02;100768.06;;;-0.08;39.91
43298;BME280;28892;55.640;37.532;2023-12-07T09:31:40;100763.25;;;0.37;40.07
43298;BME280;28892;55.640;37.532;2023-12-07T09:34:05;100755.59;;;0.68;38.13
43298;BME280;28892;55.640;37.532;2023-12-07T09:36:34;100760.66;;;0.37;40.20
43298;BME280;28892;55.640;37.532;2023-12-07T09:39:00;100766.56;;;0.23;40.42
43298;BME280;28892;55.640;37.532;2023-12-07T09:41:27;100773.50;;;-0.49;40.57
43298;BME280;28892;55.640;37.532;2023-12-07T09:43:54;100767.97;;;-0.80;40.22
43298;BME280;28892;55.640;37.532;2023-12-07T09:46:36;100775.50;;;-3.33;41.25
43298;BME280;28892;55.640;37.532;2023-12-07T09:49:02;100780.56;;;-4.64;44.67
43298;BME280;28892;55.640;37.532;2023-12-07T09:51:28;100775.00;;;-5.11;45.14
43298;BME280;28892;55.640;37.532;2023-12-07T09:54:03;100767.97;;;-5.06;46.85
43298;BME280;28892;55.640;37.532;2023-12-07T09:56:34;100771.25;;;-4.69;46.51
43298;BME280;28892;55.640;37.532;2023-12-07T09:59:18;100768.88;;;-3.17;46.04
43298;BME280;28892;55.640;37.532;2023-12-07T10:02:04;100764.81;;;-2.09;45.14
43298;BME280;28892;55.640;37.532;2023-12-07T10:11:02;100762.47;;;-0.74;42.28
43298;BME280;28892;55.640;37.532;2023-12-07T10:13:30;100766.47;;;-1.05;41.84
43298;BME280;28892;55.640;37.532;2023-12-07T10:16:05;100762.78;;;-1.39;43.37
43298;BME280;28892;55.640;37.532;2023-12-07T10:18:32;100764.09;;;-1.70;42.27
43298;BME280;28892;55.640;37.532;2023-12-07T10:20:58;100773.56;;;-2.12;44.07
43298;BME280;28892;55.640;37.532;2023-12-07T10:23:24;100776.97;;;-2.32;44.47
43298;BME280;28892;55.640;37.532;2023-12-07T10:25:51;100773.84;;;-2.63;44.90
43298;BME280;28892;55.640;37.532;2023-12-07T10:28:18;100779.78;;;-3.07;43.29
43298;BME280;28892;55.640;37.532;2023-12-07T10:30:45;100785.13;;;-3.37;45.11
43298;BME280;28892;55.640;37.532;2023-12-07T10:33:11;100785.78;;;-3.81;44.73
43298;BME280;28892;55.640;37.532;2023-12-07T10:35:38;100781.03;;;-3.68;46.46
43298;BME280;28892;55.640;37.532;2023-12-07T10:38:06;100764.50;;;-3.40;46.57
43298;BME280;28892;55.640;37.532;2023-12-07T10:40:31;100772.41;;;-3.43;44.65
43298;BME280;28892;55.640;37.532;2023-12-07T10:42:58;100767.59;;;-2.81;45.85
43298;BME280;28892;55.640;37.532;2023-12-07T10:45:30;100768.28;;;-2.54;45.94
43298;BME280;28892;55.640;37.532;2023-12-07T10:48:06;100775.44;;;-2.60;44.67
43298;BME280;28892;55.640;37.532;2023-12-07T10:50:37;100771.59;;;-2.96;45.10
43298;BME280;28892;55.640;37.532;2023-12-07T10:56:08;100767.69;;;-2.84;43.45
43298;BME280;28892;55.640;37.532;2023-12-07T10:58:36;100777.66;;;-3.21;43.55
43298;BME280;28892;55.640;37.532;2023-12-07T11:01:04;100772.69;;;-3.51;45.00
43298;BME280;28892;55.640;37.532;2023-12-07T11:03:33;100780.19;;;-3.43;44.94
43298;BME280;28892;55.640;37.532;2023-12-07T11:06:00;100782.91;;;-3.46;45.26
43298;BME280;28892;55.640;37.532;2023-12-07T11:11:03;100779.78;;;-3.58;44.10
43298;BME280;28892;55.640;37.532;2023-12-07T11:13:47;100785.78;;;-3.81;44.22
43298;BME280;28892;55.640;37.532;2023-12-07T11:16:14;100789.25;;;-4.36;45.19
43298;BME280;28892;55.640;37.532;2023-12-07T11:18:41;100790.25;;;-4.70;46.43
43298;BME280;28892;55.640;37.532;2023-12-07T11:21:06;100785.69;;;-4.62;46.64
43298;BME280;28892;55.640;37.532;2023-12-07T11:23:33;100784.63;;;-4.55;46.12
43298;BME280;28892;55.640;37.532;2023-12-07T11:25:59;100785.75;;;-4.64;46.90
43298;BME280;28892;55.640;37.532;2023-12-07T11:28:38;100789.50;;;-4.44;46.72
43298;BME280;28892;55.640;37.532;2023-12-07T11:31:07;100788.53;;;-4.41;45.87
43298;BME280;28892;55.640;37.532;2023-12-07T11:33:33;100789.91;;;-4.58;46.15
43298;BME280;28892;55.640;37.532;2023-12-07T11:38:26;100792.16;;;-4.77;46.47
43298;BME280;28892;55.640;37.532;2023-12-07T11:40:54;100785.66;;;-4.91;46.64
43298;BME280;28892;55.640;37.532;2023-12-07T11:46:07;100793.78;;;-5.05;46.01
43298;BME280;28892;55.640;37.532;2023-12-07T11:48:33;100791.56;;;-5.17;45.96
43298;BME280;28892;55.640;37.532;2023-12-07T11:51:01;100790.56;;;-5.44;46.78
43298;BME280;28892;55.640;37.532;2023-12-07T11:53:28;100786.19;;;-5.42;46.70
43298;BME280;28892;55.640;37.532;2023-12-07T11:55:58;100790.88;;;-5.55;46.66
43298;BME280;28892;55.640;37.532;2023-12-07T11:58:25;100795.09;;;-5.87;47.01
43298;BME280;28892;55.640;37.532;2023-12-07T12:00:52;100791.66;;;-5.88;47.99
43298;BME280;28892;55.640;37.532;2023-12-07T12:03:20;100791.44;;;-5.79;47.78
43298;BME280;28892;55.640;37.532;2023-12-07T12:05:46;100799.84;;;-5.70;48.32
43298;BME280;28892;55.640;37.532;2023-12-07T12:08:12;100779.50;;;-5.50;48.32
43298;BME280;28892;55.640;37.532;2023-12-07T12:10:39;100790.34;;;-5.37;47.63
43298;BME280;28892;55.640;37.532;2023-12-07T12:13:07;100786.94;;;-5.37;47.39
43298;BME280;28892;55.640;37.532;2023-12-07T12:15:55;100787.97;;;-5.44;47.10
43298;BME280;28892;55.640;37.532;2023-12-07T12:18:28;100791.19;;;-5.68;47.85
43298;BME280;28892;55.640;37.532;2023-12-07T12:20:55;100788.38;;;-5.60;48.13
43298;BME280;28892;55.640;37.532;2023-12-07T12:26:30;100796.63;;;-5.45;48.76
43298;BME280;28892;55.640;37.532;2023-12-07T12:29:21;100789.22;;;-5.26;48.56
43298;BME280;28892;55.640;37.532;2023-12-07T12:31:51;100794.78;;;-5.40;48.10
43298;BME280;28892;55.640;37.532;2023-12-07T12:34:20;100792.81;;;-5.65;48.44
43298;BME280;28892;55.640;37.532;2023-12-07T12:37:17;100795.94;;;-5.87;48.67
43298;BME280;28892;55.640;37.532;2023-12-07T12:39:55;100791.19;;;-6.03;48.87
43298;BME280;28892;55.640;37.532;2023-12-07T12:42:22;100787.75;;;-6.03;48.60
43298;BME280;28892;55.640;37.532;2023-12-07T12:44:50;100796.44;;;-6.06;48.59
43298;BME280;28892;55.640;37.532;2023-12-07T12:47:16;100800.13;;;-6.16;48.58
43298;BME280;28892;55.640;37.532;2023-12-07T12:49:42;100800.19;;;-6.19;48.43
43298;BME280;28892;55.640;37.532;2023-12-07T12:52:16;100801.25;;;-6.28;48.52
43298;BME280;28892;55.640;37.532;2023-12-07T12:54:43;100800.66;;;-6.41;48.74
43298;BME280;28892;55.640;37.532;2023-12-07T12:57:12;100797.16;;;-6.37;48.82
43298;BME280;28892;55.640;37.532;2023-12-07T12:59:40;100797.38;;;-6.48;48.56
43298;BME280;28892;55.640;37.532;2023-12-07T13:02:36;100796.63;;;-6.53;48.93
43298;BME280;28892;55.640;37.532;2023-12-07T13:11:18;100805.69;;;-6.74;49.49
43298;BME280;28892;55.640;37.532;2023-12-07T13:13:52;100808.88;;;-6.63;49.65
43298;BME280;28892;55.640;37.532;2023-12-07T13:16:22;100813.81;;;-6.52;49.64
43298;BME280;28892;55.640;37.532;2023-12-07T13:18:48;100812.97;;;-6.52;49.47
43298;BME280;28892;55.640;37.532;2023-12-07T13:21:14;100808.84;;;-6.60;49.20
43298;BME280;28892;55.640;37.532;2023-12-07T13:23:42;100816.16;;;-6.80;49.69
43298;BME280;28892;55.640;37.532;2023-12-07T13:26:12;100813.22;;;-6.65;50.09